Main page
Satellite images 15-day forecastsClimateMarine weather Cyclones Lightning AirportsFAQ Newsletter About
Weather : Europe Africa North America South America Asia Australia-Oceania Others
Languages Contact

Frankfurt, Germany

latitude: 50-03N, longitude: 008-36E, elevation: 111 m


METAR: EDDF 281250Z 08013KT 9999 OVC013 05/02 Q1011 NOSIG
TAF: EDDF 281100Z 2812/2918 05010KT 9999 SCT012 BKN020 TEMPO 2812/2910 BKN010

Time: 14:04 (13:04 UTC)

Current weather observation

The report was made 14 minutes ago, at 12:50 UTC
Wind 13 kt from the East
Temperature 5°C
Humidity 81%
Pressure 1011 hPa
Visibility 10 km or more
Overcast at a height of 1300 ft

Change units

Forecast

The report was made 2 hours and 4 minutes ago, at 11:00 UTC
Forecast valid from 28 at 12 UTC to 29 at 18 UTC
Wind 10 kt from the Northeast
Visibility 10 km or more
Scattered clouds at a height of 1200 ft
Broken clouds at a height of 2000 ft
Temporary
from 28 at 12 UTC to 29 at 10 UTC
Broken clouds at a height of 1000 ft
The information on this site is subject to a disclaimer
Weather : Europe Africa North America South America Asia Australia-Oceania Others
Satellite images 15-day forecastsClimateMarine weather Cyclones Lightning AirportsFAQ Languages Contact Newsletter About